sensor_id;sensor_type;location;lat;lon;timestamp;P1;durP1;ratioP1;P2;durP2;ratioP2
1825;SDS011;912;48.130;11.348;2022-08-19T00:00:09;1.30;;;1.00;;
1825;SDS011;912;48.130;11.348;2022-08-19T00:02:54;1.37;;;0.93;;
1825;SDS011;912;48.130;11.348;2022-08-19T00:05:36;3.90;;;2.70;;
1825;SDS011;912;48.130;11.348;2022-08-19T00:08:17;0.70;;;0.60;;
1825;SDS011;912;48.130;11.348;2022-08-19T00:11:02;2.67;;;2.05;;
1825;SDS011;912;48.130;11.348;2022-08-19T00:13:44;1.62;;;1.27;;
1825;SDS011;912;48.130;11.348;2022-08-19T00:16:26;0.90;;;0.90;;
1825;SDS011;912;48.130;11.348;2022-08-19T00:19:07;1.92;;;1.83;;
1825;SDS011;912;48.130;11.348;2022-08-19T00:21:52;2.20;;;1.20;;
1825;SDS011;912;48.130;11.348;2022-08-19T00:24:34;0.70;;;0.70;;
1825;SDS011;912;48.130;11.348;2022-08-19T00:27:15;0.77;;;0.77;;
1825;SDS011;912;48.130;11.348;2022-08-19T00:29:57;2.05;;;1.02;;
1825;SDS011;912;48.130;11.348;2022-08-19T00:32:39;1.23;;;1.10;;
1825;SDS011;912;48.130;11.348;2022-08-19T00:35:49;1.90;;;1.60;;
1825;SDS011;912;48.130;11.348;2022-08-19T00:38:31;2.00;;;1.70;;
1825;SDS011;912;48.130;11.348;2022-08-19T00:41:16;2.37;;;1.92;;
1825;SDS011;912;48.130;11.348;2022-08-19T00:43:59;1.40;;;1.00;;
1825;SDS011;912;48.130;11.348;2022-08-19T00:46:43;2.58;;;1.20;;
1825;SDS011;912;48.130;11.348;2022-08-19T00:49:25;1.70;;;1.60;;
1825;SDS011;912;48.130;11.348;2022-08-19T00:52:08;2.10;;;1.55;;
1825;SDS011;912;48.130;11.348;2022-08-19T00:54:55;1.30;;;1.20;;
1825;SDS011;912;48.130;11.348;2022-08-19T00:57:40;2.80;;;2.37;;
1825;SDS011;912;48.130;11.348;2022-08-19T01:00:21;2.25;;;2.05;;
1825;SDS011;912;48.130;11.348;2022-08-19T01:03:05;5.60;;;1.90;;
1825;SDS011;912;48.130;11.348;2022-08-19T01:05:47;0.73;;;0.73;;
1825;SDS011;912;48.130;11.348;2022-08-19T01:08:28;2.90;;;1.50;;
1825;SDS011;912;48.130;11.348;2022-08-19T01:11:10;1.40;;;1.30;;
1825;SDS011;912;48.130;11.348;2022-08-19T01:13:55;1.58;;;1.48;;
1825;SDS011;912;48.130;11.348;2022-08-19T01:16:37;1.90;;;1.80;;
1825;SDS011;912;48.130;11.348;2022-08-19T01:19:21;1.83;;;1.67;;
1825;SDS011;912;48.130;11.348;2022-08-19T01:22:08;1.20;;;1.10;;
1825;SDS011;912;48.130;11.348;2022-08-19T01:24:51;3.30;;;1.50;;
1825;SDS011;912;48.130;11.348;2022-08-19T01:27:41;3.75;;;3.37;;
1825;SDS011;912;48.130;11.348;2022-08-19T01:30:27;1.40;;;1.00;;
1825;SDS011;912;48.130;11.348;2022-08-19T01:35:50;4.03;;;2.20;;
1825;SDS011;912;48.130;11.348;2022-08-19T01:38:34;3.33;;;2.62;;
1825;SDS011;912;48.130;11.348;2022-08-19T01:41:14;1.95;;;1.85;;
1825;SDS011;912;48.130;11.348;2022-08-19T01:43:55;2.00;;;1.77;;
1825;SDS011;912;48.130;11.348;2022-08-19T01:46:37;1.12;;;1.02;;
1825;SDS011;912;48.130;11.348;2022-08-19T01:49:20;1.02;;;0.93;;
1825;SDS011;912;48.130;11.348;2022-08-19T01:52:01;2.75;;;2.47;;
1825;SDS011;912;48.130;11.348;2022-08-19T01:54:42;1.62;;;1.35;;
1825;SDS011;912;48.130;11.348;2022-08-19T01:57:24;1.45;;;1.35;;
1825;SDS011;912;48.130;11.348;2022-08-19T02:00:07;2.03;;;1.62;;
1825;SDS011;912;48.130;11.348;2022-08-19T02:02:52;2.00;;;1.90;;
1825;SDS011;912;48.130;11.348;2022-08-19T02:05:34;5.30;;;2.22;;
1825;SDS011;912;48.130;11.348;2022-08-19T02:08:18;1.92;;;1.65;;
1825;SDS011;912;48.130;11.348;2022-08-19T02:11:02;1.90;;;1.12;;
1825;SDS011;912;48.130;11.348;2022-08-19T02:13:44;1.20;;;0.60;;
1825;SDS011;912;48.130;11.348;2022-08-19T02:16:26;1.73;;;1.45;;
1825;SDS011;912;48.130;11.348;2022-08-19T02:19:07;0.90;;;0.70;;
1825;SDS011;912;48.130;11.348;2022-08-19T02:21:49;1.58;;;1.20;;
1825;SDS011;912;48.130;11.348;2022-08-19T02:24:31;1.50;;;1.15;;
1825;SDS011;912;48.130;11.348;2022-08-19T02:27:13;2.10;;;1.10;;
1825;SDS011;912;48.130;11.348;2022-08-19T02:29:55;0.98;;;0.73;;
1825;SDS011;912;48.130;11.348;2022-08-19T02:32:36;2.62;;;2.22;;
1825;SDS011;912;48.130;11.348;2022-08-19T02:35:49;1.10;;;0.70;;
1825;SDS011;912;48.130;11.348;2022-08-19T02:38:34;0.87;;;0.87;;
1825;SDS011;912;48.130;11.348;2022-08-19T02:41:17;0.90;;;0.90;;
1825;SDS011;912;48.130;11.348;2022-08-19T02:43:59;2.42;;;1.33;;
1825;SDS011;912;48.130;11.348;2022-08-19T02:46:39;3.10;;;1.17;;
1825;SDS011;912;48.130;11.348;2022-08-19T02:49:24;0.60;;;0.47;;
1825;SDS011;912;48.130;11.348;2022-08-19T02:52:05;1.60;;;1.50;;
1825;SDS011;912;48.130;11.348;2022-08-19T02:54:47;0.75;;;0.75;;
1825;SDS011;912;48.130;11.348;2022-08-19T02:57:32;0.60;;;0.60;;
1825;SDS011;912;48.130;11.348;2022-08-19T03:00:14;1.70;;;0.80;;
1825;SDS011;912;48.130;11.348;2022-08-19T03:02:55;0.88;;;0.88;;
1825;SDS011;912;48.130;11.348;2022-08-19T03:05:37;1.40;;;1.30;;
1825;SDS011;912;48.130;11.348;2022-08-19T03:08:19;1.15;;;1.05;;
1825;SDS011;912;48.130;11.348;2022-08-19T03:11:00;3.12;;;0.88;;
1825;SDS011;912;48.130;11.348;2022-08-19T03:13:42;1.98;;;1.33;;
1825;SDS011;912;48.130;11.348;2022-08-19T03:16:24;1.45;;;0.90;;
1825;SDS011;912;48.130;11.348;2022-08-19T03:19:05;0.73;;;0.70;;
1825;SDS011;912;48.130;11.348;2022-08-19T03:21:47;1.00;;;1.00;;
1825;SDS011;912;48.130;11.348;2022-08-19T03:24:29;1.15;;;1.08;;
1825;SDS011;912;48.130;11.348;2022-08-19T03:27:11;1.77;;;1.20;;
1825;SDS011;912;48.130;11.348;2022-08-19T03:29:52;1.60;;;1.00;;
1825;SDS011;912;48.130;11.348;2022-08-19T03:32:34;1.75;;;1.37;;
1825;SDS011;912;48.130;11.348;2022-08-19T03:38:48;1.10;;;0.93;;
1825;SDS011;912;48.130;11.348;2022-08-19T03:41:31;1.55;;;0.88;;
1825;SDS011;912;48.130;11.348;2022-08-19T03:44:13;1.80;;;1.00;;
1825;SDS011;912;48.130;11.348;2022-08-19T03:46:59;1.10;;;0.95;;
1825;SDS011;912;48.130;11.348;2022-08-19T03:49:41;1.23;;;0.73;;
1825;SDS011;912;48.130;11.348;2022-08-19T03:52:22;1.90;;;1.80;;
1825;SDS011;912;48.130;11.348;2022-08-19T03:55:04;1.10;;;0.70;;
1825;SDS011;912;48.130;11.348;2022-08-19T03:57:47;1.85;;;1.42;;
1825;SDS011;912;48.130;11.348;2022-08-19T04:00:29;1.60;;;0.80;;
1825;SDS011;912;48.130;11.348;2022-08-19T04:03:13;2.83;;;1.75;;
1825;SDS011;912;48.130;11.348;2022-08-19T04:05:55;1.77;;;1.67;;
1825;SDS011;912;48.130;11.348;2022-08-19T04:09:10;0.70;;;0.57;;
1825;SDS011;912;48.130;11.348;2022-08-19T04:11:53;5.20;;;2.60;;
1825;SDS011;912;48.130;11.348;2022-08-19T04:14:34;1.83;;;1.02;;
1825;SDS011;912;48.130;11.348;2022-08-19T04:17:16;2.70;;;2.10;;
1825;SDS011;912;48.130;11.348;2022-08-19T04:19:58;3.10;;;2.00;;
1825;SDS011;912;48.130;11.348;2022-08-19T04:25:14;2.40;;;1.63;;
1825;SDS011;912;48.130;11.348;2022-08-19T04:27:59;1.58;;;1.12;;
1825;SDS011;912;48.130;11.348;2022-08-19T04:35:51;2.10;;;0.90;;
1825;SDS011;912;48.130;11.348;2022-08-19T04:38:31;5.93;;;1.75;;
1825;SDS011;912;48.130;11.348;2022-08-19T04:41:12;1.30;;;1.00;;
1825;SDS011;912;48.130;11.348;2022-08-19T04:44:00;0.70;;;0.70;;
1825;SDS011;912;48.130;11.348;2022-08-19T04:46:41;1.25;;;0.70;;
1825;SDS011;912;48.130;11.348;2022-08-19T04:49:23;2.17;;;1.98;;
1825;SDS011;912;48.130;11.348;2022-08-19T04:52:05;10.27;;;2.33;;
1825;SDS011;912;48.130;11.348;2022-08-19T04:54:46;0.90;;;0.75;;
1825;SDS011;912;48.130;11.348;2022-08-19T04:57:28;2.50;;;2.30;;
1825;SDS011;912;48.130;11.348;2022-08-19T05:00:10;2.37;;;1.60;;
1825;SDS011;912;48.130;11.348;2022-08-19T05:02:52;1.70;;;1.60;;
1825;SDS011;912;48.130;11.348;2022-08-19T05:05:37;1.00;;;1.00;;
1825;SDS011;912;48.130;11.348;2022-08-19T05:08:19;2.12;;;1.62;;
1825;SDS011;912;48.130;11.348;2022-08-19T05:11:00;2.40;;;2.20;;
1825;SDS011;912;48.130;11.348;2022-08-19T05:13:42;2.00;;;1.23;;
1825;SDS011;912;48.130;11.348;2022-08-19T05:16:26;3.15;;;2.85;;
1825;SDS011;912;48.130;11.348;2022-08-19T05:20:58;2.05;;;1.85;;
1825;SDS011;912;48.130;11.348;2022-08-19T05:23:48;0.85;;;0.85;;
1825;SDS011;912;48.130;11.348;2022-08-19T05:26:32;2.67;;;2.28;;
1825;SDS011;912;48.130;11.348;2022-08-19T05:29:18;1.67;;;1.58;;
1825;SDS011;912;48.130;11.348;2022-08-19T05:31:58;1.80;;;1.70;;
1825;SDS011;912;48.130;11.348;2022-08-19T05:35:49;2.12;;;1.40;;
1825;SDS011;912;48.130;11.348;2022-08-19T05:38:31;1.65;;;1.55;;
1825;SDS011;912;48.130;11.348;2022-08-19T05:41:14;2.70;;;1.98;;
1825;SDS011;912;48.130;11.348;2022-08-19T05:43:56;3.17;;;2.87;;
1825;SDS011;912;48.130;11.348;2022-08-19T05:46:34;2.87;;;1.73;;
1825;SDS011;912;48.130;11.348;2022-08-19T05:49:16;3.20;;;2.12;;
1825;SDS011;912;48.130;11.348;2022-08-19T05:51:57;2.80;;;2.40;;
1825;SDS011;912;48.130;11.348;2022-08-19T05:54:39;1.80;;;1.20;;
1825;SDS011;912;48.130;11.348;2022-08-19T05:57:23;2.90;;;1.80;;
1825;SDS011;912;48.130;11.348;2022-08-19T06:00:10;3.08;;;2.45;;
1825;SDS011;912;48.130;11.348;2022-08-19T06:02:54;3.20;;;1.70;;
1825;SDS011;912;48.130;11.348;2022-08-19T06:05:36;2.80;;;1.83;;
1825;SDS011;912;48.130;11.348;2022-08-19T06:08:18;2.80;;;2.25;;
1825;SDS011;912;48.130;11.348;2022-08-19T06:13:56;3.58;;;1.90;;
1825;SDS011;912;48.130;11.348;2022-08-19T06:16:44;3.80;;;1.70;;
1825;SDS011;912;48.130;11.348;2022-08-19T06:19:28;2.90;;;2.10;;
1825;SDS011;912;48.130;11.348;2022-08-19T06:22:13;4.07;;;2.83;;
1825;SDS011;912;48.130;11.348;2022-08-19T06:24:55;3.08;;;2.30;;
1825;SDS011;912;48.130;11.348;2022-08-19T06:27:38;5.43;;;3.20;;
1825;SDS011;912;48.130;11.348;2022-08-19T06:30:20;2.03;;;1.60;;
1825;SDS011;912;48.130;11.348;2022-08-19T06:33:02;10.20;;;2.50;;
1825;SDS011;912;48.130;11.348;2022-08-19T06:35:50;2.50;;;2.30;;
1825;SDS011;912;48.130;11.348;2022-08-19T06:38:32;3.60;;;2.60;;
1825;SDS011;912;48.130;11.348;2022-08-19T06:41:13;2.72;;;2.15;;
1825;SDS011;912;48.130;11.348;2022-08-19T06:43:55;2.70;;;2.00;;
1825;SDS011;912;48.130;11.348;2022-08-19T06:46:38;2.85;;;2.60;;
1825;SDS011;912;48.130;11.348;2022-08-19T06:49:22;3.45;;;3.15;;
1825;SDS011;912;48.130;11.348;2022-08-19T06:52:04;3.35;;;2.42;;
1825;SDS011;912;48.130;11.348;2022-08-19T06:54:45;4.93;;;2.40;;
1825;SDS011;912;48.130;11.348;2022-08-19T06:57:27;3.05;;;2.00;;
1825;SDS011;912;48.130;11.348;2022-08-19T07:00:12;4.65;;;2.65;;
1825;SDS011;912;48.130;11.348;2022-08-19T07:02:54;3.90;;;2.33;;
1825;SDS011;912;48.130;11.348;2022-08-19T07:05:39;4.30;;;3.87;;
1825;SDS011;912;48.130;11.348;2022-08-19T07:08:19;3.15;;;2.67;;
1825;SDS011;912;48.130;11.348;2022-08-19T07:11:02;3.72;;;2.80;;
1825;SDS011;912;48.130;11.348;2022-08-19T07:13:43;4.25;;;3.05;;
1825;SDS011;912;48.130;11.348;2022-08-19T07:16:25;4.15;;;2.78;;
1825;SDS011;912;48.130;11.348;2022-08-19T07:19:08;3.37;;;3.07;;
1825;SDS011;912;48.130;11.348;2022-08-19T07:21:50;5.00;;;4.10;;
1825;SDS011;912;48.130;11.348;2022-08-19T07:24:34;4.37;;;2.43;;
1825;SDS011;912;48.130;11.348;2022-08-19T07:27:14;4.97;;;2.78;;
1825;SDS011;912;48.130;11.348;2022-08-19T07:29:56;5.75;;;3.67;;
1825;SDS011;912;48.130;11.348;2022-08-19T07:32:38;5.18;;;4.75;;
1825;SDS011;912;48.130;11.348;2022-08-19T07:35:49;9.07;;;4.85;;
1825;SDS011;912;48.130;11.348;2022-08-19T07:38:31;6.45;;;3.22;;
1825;SDS011;912;48.130;11.348;2022-08-19T07:41:13;10.50;;;4.97;;
1825;SDS011;912;48.130;11.348;2022-08-19T07:43:54;4.50;;;2.80;;
1825;SDS011;912;48.130;11.348;2022-08-19T07:46:37;14.45;;;4.25;;
1825;SDS011;912;48.130;11.348;2022-08-19T07:49:18;5.85;;;3.85;;
1825;SDS011;912;48.130;11.348;2022-08-19T07:52:01;7.35;;;4.50;;
1825;SDS011;912;48.130;11.348;2022-08-19T07:54:41;8.73;;;3.47;;
1825;SDS011;912;48.130;11.348;2022-08-19T07:57:23;6.03;;;2.87;;
1825;SDS011;912;48.130;11.348;2022-08-19T08:00:05;7.93;;;5.00;;
1825;SDS011;912;48.130;11.348;2022-08-19T08:02:48;5.60;;;3.67;;
1825;SDS011;912;48.130;11.348;2022-08-19T08:05:30;6.15;;;5.07;;
1825;SDS011;912;48.130;11.348;2022-08-19T08:08:17;4.95;;;3.30;;
1825;SDS011;912;48.130;11.348;2022-08-19T08:11:07;7.97;;;4.45;;
1825;SDS011;912;48.130;11.348;2022-08-19T08:13:49;7.35;;;3.67;;
1825;SDS011;912;48.130;11.348;2022-08-19T08:16:33;7.90;;;4.37;;
1825;SDS011;912;48.130;11.348;2022-08-19T08:19:14;4.68;;;3.50;;
1825;SDS011;912;48.130;11.348;2022-08-19T08:21:59;5.10;;;3.80;;
1825;SDS011;912;48.130;11.348;2022-08-19T08:24:41;7.45;;;3.10;;
1825;SDS011;912;48.130;11.348;2022-08-19T08:27:22;5.43;;;3.87;;
1825;SDS011;912;48.130;11.348;2022-08-19T08:30:05;7.18;;;4.80;;
1825;SDS011;912;48.130;11.348;2022-08-19T08:32:48;7.10;;;3.60;;
1825;SDS011;912;48.130;11.348;2022-08-19T08:35:53;6.40;;;4.12;;
1825;SDS011;912;48.130;11.348;2022-08-19T08:38:35;6.15;;;4.22;;
1825;SDS011;912;48.130;11.348;2022-08-19T08:41:22;6.85;;;4.68;;
1825;SDS011;912;48.130;11.348;2022-08-19T08:44:13;4.60;;;3.70;;
1825;SDS011;912;48.130;11.348;2022-08-19T08:46:56;7.95;;;5.07;;
1825;SDS011;912;48.130;11.348;2022-08-19T08:49:52;12.77;;;4.80;;
1825;SDS011;912;48.130;11.348;2022-08-19T08:52:37;5.50;;;5.00;;
1825;SDS011;912;48.130;11.348;2022-08-19T08:55:19;7.67;;;3.80;;
1825;SDS011;912;48.130;11.348;2022-08-19T08:58:09;5.32;;;4.35;;
1825;SDS011;912;48.130;11.348;2022-08-19T09:00:53;9.60;;;4.07;;
1825;SDS011;912;48.130;11.348;2022-08-19T09:03:39;8.13;;;4.00;;
1825;SDS011;912;48.130;11.348;2022-08-19T09:06:23;3.53;;;2.87;;
1825;SDS011;912;48.130;11.348;2022-08-19T09:09:27;7.50;;;2.75;;
1825;SDS011;912;48.130;11.348;2022-08-19T09:12:11;4.28;;;3.30;;
1825;SDS011;912;48.130;11.348;2022-08-19T09:15:12;3.47;;;3.17;;
1825;SDS011;912;48.130;11.348;2022-08-19T09:17:54;4.97;;;2.97;;
1825;SDS011;912;48.130;11.348;2022-08-19T09:20:35;5.87;;;4.20;;
1825;SDS011;912;48.130;11.348;2022-08-19T09:23:17;4.57;;;3.80;;
1825;SDS011;912;48.130;11.348;2022-08-19T09:25:59;7.20;;;4.30;;
1825;SDS011;912;48.130;11.348;2022-08-19T09:28:41;6.87;;;4.10;;
1825;SDS011;912;48.130;11.348;2022-08-19T09:31:24;6.50;;;3.15;;
1825;SDS011;912;48.130;11.348;2022-08-19T09:36:00;4.28;;;3.00;;
1825;SDS011;912;48.130;11.348;2022-08-19T09:38:33;2.25;;;2.00;;
1825;SDS011;912;48.130;11.348;2022-08-19T09:41:15;2.28;;;2.08;;
1825;SDS011;912;48.130;11.348;2022-08-19T09:43:56;8.60;;;5.05;;
1825;SDS011;912;48.130;11.348;2022-08-19T09:46:37;3.37;;;2.12;;
1825;SDS011;912;48.130;11.348;2022-08-19T09:49:19;3.37;;;2.12;;
1825;SDS011;912;48.130;11.348;2022-08-19T09:52:04;4.20;;;3.30;;
1825;SDS011;912;48.130;11.348;2022-08-19T09:54:46;4.12;;;3.33;;
1825;SDS011;912;48.130;11.348;2022-08-19T09:57:28;4.22;;;3.67;;
1825;SDS011;912;48.130;11.348;2022-08-19T10:00:10;6.20;;;4.45;;
1825;SDS011;912;48.130;11.348;2022-08-19T10:02:52;4.87;;;4.35;;
1825;SDS011;912;48.130;11.348;2022-08-19T10:05:34;4.37;;;3.92;;
1825;SDS011;912;48.130;11.348;2022-08-19T10:08:22;3.05;;;2.47;;
1825;SDS011;912;48.130;11.348;2022-08-19T10:11:04;2.97;;;2.67;;
1825;SDS011;912;48.130;11.348;2022-08-19T10:13:45;4.40;;;3.70;;
1825;SDS011;912;48.130;11.348;2022-08-19T10:16:27;5.40;;;3.30;;
1825;SDS011;912;48.130;11.348;2022-08-19T10:19:09;5.28;;;2.83;;
1825;SDS011;912;48.130;11.348;2022-08-19T10:21:50;2.72;;;1.87;;
1825;SDS011;912;48.130;11.348;2022-08-19T10:24:33;3.62;;;3.22;;
1825;SDS011;912;48.130;11.348;2022-08-19T10:27:15;4.20;;;3.40;;
1825;SDS011;912;48.130;11.348;2022-08-19T10:29:57;2.08;;;1.98;;
1825;SDS011;912;48.130;11.348;2022-08-19T10:32:39;3.60;;;2.20;;
1825;SDS011;912;48.130;11.348;2022-08-19T10:35:59;1.35;;;1.27;;
1825;SDS011;912;48.130;11.348;2022-08-19T10:38:41;3.10;;;2.55;;
1825;SDS011;912;48.130;11.348;2022-08-19T10:41:23;2.10;;;1.00;;
1825;SDS011;912;48.130;11.348;2022-08-19T10:44:05;3.92;;;3.53;;
1825;SDS011;912;48.130;11.348;2022-08-19T10:46:47;1.50;;;1.27;;
1825;SDS011;912;48.130;11.348;2022-08-19T10:49:29;3.60;;;2.60;;
1825;SDS011;912;48.130;11.348;2022-08-19T10:52:14;3.37;;;2.50;;
1825;SDS011;912;48.130;11.348;2022-08-19T10:55:04;2.63;;;1.70;;
1825;SDS011;912;48.130;11.348;2022-08-19T10:57:50;3.40;;;1.20;;
1825;SDS011;912;48.130;11.348;2022-08-19T11:00:32;2.27;;;1.37;;
1825;SDS011;912;48.130;11.348;2022-08-19T11:03:14;3.33;;;1.48;;
1825;SDS011;912;48.130;11.348;2022-08-19T11:06:00;2.33;;;2.12;;
1825;SDS011;912;48.130;11.348;2022-08-19T11:08:41;2.97;;;1.75;;
1825;SDS011;912;48.130;11.348;2022-08-19T11:11:23;1.90;;;1.40;;
1825;SDS011;912;48.130;11.348;2022-08-19T11:14:05;1.10;;;0.80;;
1825;SDS011;912;48.130;11.348;2022-08-19T11:16:47;2.22;;;1.65;;
1825;SDS011;912;48.130;11.348;2022-08-19T11:19:28;1.70;;;1.10;;
1825;SDS011;912;48.130;11.348;2022-08-19T11:22:10;1.33;;;0.73;;
1825;SDS011;912;48.130;11.348;2022-08-19T11:24:51;1.65;;;0.93;;
1825;SDS011;912;48.130;11.348;2022-08-19T11:30:11;0.80;;;0.47;;
1825;SDS011;912;48.130;11.348;2022-08-19T11:32:53;0.50;;;0.47;;
1825;SDS011;912;48.130;11.348;2022-08-19T11:35:50;0.70;;;0.50;;
1825;SDS011;912;48.130;11.348;2022-08-19T11:38:35;1.40;;;0.62;;
1825;SDS011;912;48.130;11.348;2022-08-19T11:41:17;0.60;;;0.40;;
1825;SDS011;912;48.130;11.348;2022-08-19T11:43:58;0.68;;;0.40;;
1825;SDS011;912;48.130;11.348;2022-08-19T11:46:40;0.90;;;0.57;;
1825;SDS011;912;48.130;11.348;2022-08-19T11:51:56;0.50;;;0.30;;
1825;SDS011;912;48.130;11.348;2022-08-19T11:54:40;0.70;;;0.40;;
1825;SDS011;912;48.130;11.348;2022-08-19T11:57:21;0.60;;;0.50;;
1825;SDS011;912;48.130;11.348;2022-08-19T12:00:04;0.60;;;0.40;;
1825;SDS011;912;48.130;11.348;2022-08-19T12:02:49;0.90;;;0.62;;
1825;SDS011;912;48.130;11.348;2022-08-19T12:05:31;0.50;;;0.40;;
1825;SDS011;912;48.130;11.348;2022-08-19T12:08:13;1.00;;;0.60;;
1825;SDS011;912;48.130;11.348;2022-08-19T12:10:55;1.20;;;0.70;;
1825;SDS011;912;48.130;11.348;2022-08-19T12:13:37;0.80;;;0.50;;
1825;SDS011;912;48.130;11.348;2022-08-19T12:16:19;0.62;;;0.50;;
1825;SDS011;912;48.130;11.348;2022-08-19T12:19:01;1.17;;;0.60;;
1825;SDS011;912;48.130;11.348;2022-08-19T12:21:42;2.37;;;0.93;;
1825;SDS011;912;48.130;11.348;2022-08-19T12:24:27;0.70;;;0.50;;
1825;SDS011;912;48.130;11.348;2022-08-19T12:28:25;0.40;;;0.30;;
1825;SDS011;912;48.130;11.348;2022-08-19T12:31:07;0.60;;;0.40;;
1825;SDS011;912;48.130;11.348;2022-08-19T12:35:50;0.60;;;0.60;;
1825;SDS011;912;48.130;11.348;2022-08-19T12:38:32;0.40;;;0.40;;
1825;SDS011;912;48.130;11.348;2022-08-19T12:41:14;0.80;;;0.50;;
1825;SDS011;912;48.130;11.348;2022-08-19T12:43:55;0.70;;;0.70;;
1825;SDS011;912;48.130;11.348;2022-08-19T12:46:37;0.77;;;0.70;;
1825;SDS011;912;48.130;11.348;2022-08-19T12:49:21;0.70;;;0.50;;
1825;SDS011;912;48.130;11.348;2022-08-19T12:52:05;1.00;;;0.70;;
1825;SDS011;912;48.130;11.348;2022-08-19T12:54:48;0.90;;;0.75;;
1825;SDS011;912;48.130;11.348;2022-08-19T13:00:06;0.52;;;0.32;;
1825;SDS011;912;48.130;11.348;2022-08-19T13:02:51;0.50;;;0.50;;
1825;SDS011;912;48.130;11.348;2022-08-19T13:05:32;0.70;;;0.60;;
1825;SDS011;912;48.130;11.348;2022-08-19T13:08:14;0.95;;;0.68;;
1825;SDS011;912;48.130;11.348;2022-08-19T13:10:56;0.60;;;0.52;;
1825;SDS011;912;48.130;11.348;2022-08-19T13:13:39;0.70;;;0.50;;
1825;SDS011;912;48.130;11.348;2022-08-19T13:16:19;0.60;;;0.60;;
1825;SDS011;912;48.130;11.348;2022-08-19T13:19:04;0.90;;;0.60;;
1825;SDS011;912;48.130;11.348;2022-08-19T13:21:45;1.40;;;0.90;;
1825;SDS011;912;48.130;11.348;2022-08-19T13:24:27;1.50;;;0.50;;
1825;SDS011;912;48.130;11.348;2022-08-19T13:27:10;1.27;;;0.57;;
1825;SDS011;912;48.130;11.348;2022-08-19T13:29:52;1.62;;;1.52;;
1825;SDS011;912;48.130;11.348;2022-08-19T13:32:39;2.50;;;1.30;;
1825;SDS011;912;48.130;11.348;2022-08-19T13:35:50;1.90;;;0.73;;
1825;SDS011;912;48.130;11.348;2022-08-19T13:38:31;1.10;;;1.00;;
1825;SDS011;912;48.130;11.348;2022-08-19T13:41:13;0.90;;;0.70;;
1825;SDS011;912;48.130;11.348;2022-08-19T13:43:56;1.30;;;1.00;;
1825;SDS011;912;48.130;11.348;2022-08-19T13:46:37;1.55;;;0.90;;
1825;SDS011;912;48.130;11.348;2022-08-19T13:49:19;1.25;;;1.10;;
1825;SDS011;912;48.130;11.348;2022-08-19T13:52:01;1.37;;;0.90;;
1825;SDS011;912;48.130;11.348;2022-08-19T13:54:43;0.70;;;0.40;;
1825;SDS011;912;48.130;11.348;2022-08-19T13:57:25;1.30;;;0.77;;
1825;SDS011;912;48.130;11.348;2022-08-19T14:00:08;0.70;;;0.60;;
1825;SDS011;912;48.130;11.348;2022-08-19T14:02:52;0.90;;;0.47;;
1825;SDS011;912;48.130;11.348;2022-08-19T14:05:32;1.02;;;0.55;;
1825;SDS011;912;48.130;11.348;2022-08-19T14:08:14;0.70;;;0.50;;
1825;SDS011;912;48.130;11.348;2022-08-19T14:10:56;0.70;;;0.50;;
1825;SDS011;912;48.130;11.348;2022-08-19T14:13:43;1.30;;;0.60;;
1825;SDS011;912;48.130;11.348;2022-08-19T14:16:25;0.88;;;0.57;;
1825;SDS011;912;48.130;11.348;2022-08-19T14:19:07;1.40;;;0.60;;
1825;SDS011;912;48.130;11.348;2022-08-19T14:21:49;1.80;;;0.80;;
1825;SDS011;912;48.130;11.348;2022-08-19T14:24:31;0.90;;;0.90;;
1825;SDS011;912;48.130;11.348;2022-08-19T14:27:13;0.60;;;0.40;;
1825;SDS011;912;48.130;11.348;2022-08-19T14:29:56;0.60;;;0.40;;
1825;SDS011;912;48.130;11.348;2022-08-19T14:32:41;0.70;;;0.60;;
1825;SDS011;912;48.130;11.348;2022-08-19T14:35:50;1.27;;;0.60;;
1825;SDS011;912;48.130;11.348;2022-08-19T14:38:32;1.37;;;0.62;;
1825;SDS011;912;48.130;11.348;2022-08-19T14:41:17;0.68;;;0.55;;
1825;SDS011;912;48.130;11.348;2022-08-19T14:43:57;0.60;;;0.60;;
1825;SDS011;912;48.130;11.348;2022-08-19T14:46:39;0.90;;;0.52;;
1825;SDS011;912;48.130;11.348;2022-08-19T14:49:20;0.50;;;0.40;;
1825;SDS011;912;48.130;11.348;2022-08-19T14:52:02;0.90;;;0.55;;
1825;SDS011;912;48.130;11.348;2022-08-19T14:54:44;1.10;;;1.00;;
1825;SDS011;912;48.130;11.348;2022-08-19T14:57:26;0.90;;;0.40;;
1825;SDS011;912;48.130;11.348;2022-08-19T15:00:08;0.80;;;0.80;;
1825;SDS011;912;48.130;11.348;2022-08-19T15:02:52;0.70;;;0.40;;
1825;SDS011;912;48.130;11.348;2022-08-19T15:05:34;0.82;;;0.50;;
1825;SDS011;912;48.130;11.348;2022-08-19T15:08:19;0.90;;;0.70;;
1825;SDS011;912;48.130;11.348;2022-08-19T15:13:06;0.80;;;0.60;;
1825;SDS011;912;48.130;11.348;2022-08-19T15:15:48;1.20;;;0.70;;
1825;SDS011;912;48.130;11.348;2022-08-19T15:18:29;1.30;;;1.05;;
1825;SDS011;912;48.130;11.348;2022-08-19T15:21:12;1.40;;;1.02;;
1825;SDS011;912;48.130;11.348;2022-08-19T15:23:53;2.20;;;0.95;;
1825;SDS011;912;48.130;11.348;2022-08-19T15:26:35;1.90;;;1.20;;
1825;SDS011;912;48.130;11.348;2022-08-19T15:29:16;1.12;;;0.80;;
1825;SDS011;912;48.130;11.348;2022-08-19T15:31:58;0.82;;;0.62;;
1825;SDS011;912;48.130;11.348;2022-08-19T15:35:50;2.35;;;1.83;;
1825;SDS011;912;48.130;11.348;2022-08-19T15:38:32;1.60;;;1.20;;
1825;SDS011;912;48.130;11.348;2022-08-19T15:41:19;1.30;;;1.10;;
1825;SDS011;912;48.130;11.348;2022-08-19T15:44:04;1.95;;;1.42;;
1825;SDS011;912;48.130;11.348;2022-08-19T15:46:46;2.30;;;1.00;;
1825;SDS011;912;48.130;11.348;2022-08-19T15:49:27;1.70;;;1.60;;
1825;SDS011;912;48.130;11.348;2022-08-19T15:52:08;1.40;;;1.30;;
1825;SDS011;912;48.130;11.348;2022-08-19T15:54:53;1.70;;;1.30;;
1825;SDS011;912;48.130;11.348;2022-08-19T16:00:15;1.30;;;1.00;;
1825;SDS011;912;48.130;11.348;2022-08-19T16:03:02;0.80;;;0.80;;
1825;SDS011;912;48.130;11.348;2022-08-19T16:05:49;1.17;;;0.73;;
1825;SDS011;912;48.130;11.348;2022-08-19T16:12:15;1.20;;;0.70;;
1825;SDS011;912;48.130;11.348;2022-08-19T16:14:57;0.60;;;0.57;;
1825;SDS011;912;48.130;11.348;2022-08-19T16:17:39;0.43;;;0.43;;
1825;SDS011;912;48.130;11.348;2022-08-19T16:20:20;1.30;;;1.08;;
1825;SDS011;912;48.130;11.348;2022-08-19T16:23:02;0.60;;;0.60;;
1825;SDS011;912;48.130;11.348;2022-08-19T16:25:44;1.10;;;1.00;;
1825;SDS011;912;48.130;11.348;2022-08-19T16:28:29;0.52;;;0.43;;
1825;SDS011;912;48.130;11.348;2022-08-19T16:31:11;0.80;;;0.80;;
1825;SDS011;912;48.130;11.348;2022-08-19T16:35:50;0.60;;;0.60;;
1825;SDS011;912;48.130;11.348;2022-08-19T16:38:32;0.80;;;0.80;;
1825;SDS011;912;48.130;11.348;2022-08-19T16:41:13;0.60;;;0.60;;
1825;SDS011;912;48.130;11.348;2022-08-19T16:43:55;0.60;;;0.50;;
1825;SDS011;912;48.130;11.348;2022-08-19T16:46:37;1.10;;;1.00;;
1825;SDS011;912;48.130;11.348;2022-08-19T16:49:18;0.73;;;0.73;;
1825;SDS011;912;48.130;11.348;2022-08-19T16:52:00;3.08;;;1.48;;
1825;SDS011;912;48.130;11.348;2022-08-19T16:57:10;0.80;;;0.70;;
1825;SDS011;912;48.130;11.348;2022-08-19T16:59:52;0.90;;;0.80;;
1825;SDS011;912;48.130;11.348;2022-08-19T17:02:36;1.30;;;1.20;;
1825;SDS011;912;48.130;11.348;2022-08-19T17:06:01;1.90;;;1.50;;
1825;SDS011;912;48.130;11.348;2022-08-19T17:08:42;0.80;;;0.75;;
1825;SDS011;912;48.130;11.348;2022-08-19T17:11:25;0.80;;;0.60;;
1825;SDS011;912;48.130;11.348;2022-08-19T17:14:06;0.40;;;0.35;;
1825;SDS011;912;48.130;11.348;2022-08-19T17:16:48;1.10;;;1.00;;
1825;SDS011;912;48.130;11.348;2022-08-19T17:19:31;1.00;;;1.00;;
1825;SDS011;912;48.130;11.348;2022-08-19T17:22:13;1.10;;;0.70;;
1825;SDS011;912;48.130;11.348;2022-08-19T17:24:55;0.70;;;0.70;;
1825;SDS011;912;48.130;11.348;2022-08-19T17:27:36;1.20;;;0.90;;
1825;SDS011;912;48.130;11.348;2022-08-19T17:30:19;1.50;;;0.32;;
1825;SDS011;912;48.130;11.348;2022-08-19T17:33:00;0.70;;;0.60;;
1825;SDS011;912;48.130;11.348;2022-08-19T17:35:50;0.70;;;0.60;;
1825;SDS011;912;48.130;11.348;2022-08-19T17:38:31;1.50;;;1.30;;
1825;SDS011;912;48.130;11.348;2022-08-19T17:41:13;0.90;;;0.47;;